Time;durP1;ratioP1;P1;durP2;ratioP2;P2;SDS_P1;SDS_P2;PMS_P1;PMS_P2;Temp;Humidity;BMP_temperature;BMP_pressure;BME280_temperature;BME280_humidity;BME280_pressure;Samples;Min_cycle;Max_cycle;Signal;HPM_P1;HPM_P2
2022/06/23 00:01:43;;;;;;;6.57;3.63;;;;;;;;;;5291549;27;20449;-79
2022/06/23 00:04:15;;;;;;;5.65;3.85;;;;;;;;;;5291422;27;20038;-79
2022/06/23 00:06:50;;;;;;;8.32;3.53;;;;;;;;;;5297308;27;20036;-80
2022/06/23 00:09:31;;;;;;;8.20;4.13;;;;;;;;;;5308130;27;20064;-80
2022/06/23 00:12:13;;;;;;;6.05;3.88;;;;;;;;;;5312175;27;20036;-79
2022/06/23 00:14:50;;;;;;;7.55;4.57;;;;;;;;;;5298865;27;20039;-79
2022/06/23 00:17:24;;;;;;;9.02;4.20;;;;;;;;;;5312687;27;20493;-79
2022/06/23 00:20:01;;;;;;;7.93;4.03;;;;;;;;;;5316091;27;20070;-79
2022/06/23 00:22:32;;;;;;;7.10;3.88;;;;;;;;;;5312382;27;21547;-79
2022/06/23 00:25:05;;;;;;;6.35;3.90;;;;;;;;;;5297562;27;20048;-79
2022/06/23 00:27:38;;;;;;;8.85;5.05;;;;;;;;;;5311318;27;20075;-79
2022/06/23 00:30:24;;;;;;;8.40;4.90;;;;;;;;;;5305120;27;20477;-79
2022/06/23 00:32:55;;;;;;;10.37;4.93;;;;;;;;;;5317149;27;20421;-79
2022/06/23 00:35:28;;;;;;;8.88;4.70;;;;;;;;;;5317253;27;20074;-79
2022/06/23 00:38:00;;;;;;;11.25;5.72;;;;;;;;;;5316275;27;20050;-79
2022/06/23 00:40:31;;;;;;;7.97;4.68;;;;;;;;;;5286363;27;20021;-79
2022/06/23 00:43:03;;;;;;;7.13;5.40;;;;;;;;;;5312632;27;20020;-79
2022/06/23 00:45:34;;;;;;;9.90;5.20;;;;;;;;;;5298095;27;20270;-79
2022/06/23 00:48:10;;;;;;;9.67;5.57;;;;;;;;;;5314922;27;20028;-79
2022/06/23 00:50:45;;;;;;;9.35;5.75;;;;;;;;;;5328137;27;20047;-79
2022/06/23 00:53:55;;;;;;;;;;;;;;;;;;;;;
2022/06/23 00:56:47;;;;;;;9.70;5.32;;;;;;;;;;5315083;27;41745;-79
2022/06/23 00:59:21;;;;;;;10.38;6.28;;;;;;;;;;5307508;27;20234;-79
2022/06/23 01:02:12;;;;;;;11.75;6.07;;;;;;;;;;5314451;27;20032;-79
2022/06/23 01:04:50;;;;;;;10.85;6.10;;;;;;;;;;5308661;27;20032;-79
2022/06/23 01:07:47;;;;;;;10.30;6.60;;;;;;;;;;5310511;27;20029;-79
2022/06/23 01:10:29;;;;;;;13.90;6.95;;;;;;;;;;5285659;27;20044;-78
2022/06/23 01:13:14;;;;;;;10.88;6.85;;;;;;;;;;5304492;27;20051;-79
2022/06/23 01:15:49;;;;;;;7.38;5.97;;;;;;;;;;5320473;27;20141;-78
2022/06/23 01:18:23;;;;;;;12.15;6.82;;;;;;;;;;5305121;27;20456;-79
2022/06/23 01:20:57;;;;;;;9.55;6.68;;;;;;;;;;5315081;27;20031;-79
2022/06/23 01:23:29;;;;;;;11.38;7.38;;;;;;;;;;5325838;27;20084;-79
2022/06/23 01:26:08;;;;;;;9.93;7.25;;;;;;;;;;5333048;27;20025;-80
2022/06/23 01:28:40;;;;;;;11.23;7.50;;;;;;;;;;5309061;27;20040;-79
2022/06/23 01:31:15;;;;;;;11.27;7.63;;;;;;;;;;5301823;27;20079;-79
2022/06/23 01:33:52;;;;;;;14.35;7.82;;;;;;;;;;5315437;27;20105;-79
2022/06/23 01:36:36;;;;;;;9.60;7.22;;;;;;;;;;5310612;27;20084;-79
2022/06/23 01:39:10;;;;;;;12.75;8.13;;;;;;;;;;5309546;27;20123;-79
2022/06/23 01:41:41;;;;;;;12.05;7.65;;;;;;;;;;5312176;27;20040;-79
2022/06/23 01:44:13;;;;;;;12.03;7.63;;;;;;;;;;5308925;27;20036;-79
2022/06/23 01:46:46;;;;;;;13.48;8.65;;;;;;;;;;5320542;27;20064;-79
2022/06/23 01:49:26;;;;;;;11.73;8.00;;;;;;;;;;5287916;28;20052;-79
2022/06/23 01:52:11;;;;;;;11.40;8.40;;;;;;;;;;5291306;28;20032;-79
2022/06/23 01:54:42;;;;;;;14.40;8.82;;;;;;;;;;5290927;28;20028;-79
2022/06/23 01:57:24;;;;;;;17.40;8.88;;;;;;;;;;5306913;27;20688;-79
2022/06/23 02:00:31;;;;;;;11.40;8.60;;;;;;;;;;5269687;28;20835;-79
2022/06/23 02:03:02;;;;;;;12.73;8.90;;;;;;;;;;5238234;28;20041;-80
2022/06/23 02:05:40;;;;;;;14.82;9.13;;;;;;;;;;5269575;28;20045;-79
2022/06/23 02:08:30;;;;;;;13.10;9.00;;;;;;;;;;5300212;27;20040;-78
2022/06/23 02:11:11;;;;;;;13.15;9.60;;;;;;;;;;5270248;28;20075;-79
2022/06/23 02:13:54;;;;;;;13.35;8.80;;;;;;;;;;5288323;28;20025;-79
2022/06/23 02:16:43;;;;;;;11.10;8.50;;;;;;;;;;5294531;28;20033;-79
2022/06/23 02:19:24;;;;;;;15.15;9.73;;;;;;;;;;5302398;27;20037;-80
2022/06/23 02:22:10;;;;;;;14.35;8.93;;;;;;;;;;5292424;28;20040;-79
2022/06/23 02:24:47;;;;;;;13.93;9.20;;;;;;;;;;5284430;28;20124;-79
2022/06/23 02:27:18;;;;;;;15.02;9.77;;;;;;;;;;5286895;28;20047;-79
2022/06/23 02:29:57;;;;;;;15.40;9.87;;;;;;;;;;5289127;28;20382;-79
2022/06/23 02:32:42;;;;;;;14.88;9.18;;;;;;;;;;5305029;27;20259;-79
2022/06/23 02:35:22;;;;;;;12.65;10.02;;;;;;;;;;5274387;28;20377;-79
2022/06/23 02:38:00;;;;;;;16.10;10.20;;;;;;;;;;5311815;27;20020;-79
2022/06/23 02:40:42;;;;;;;12.02;9.13;;;;;;;;;;5290875;28;20080;-79
2022/06/23 02:43:19;;;;;;;13.93;9.13;;;;;;;;;;5290287;28;20377;-79
2022/06/23 02:45:50;;;;;;;15.10;9.40;;;;;;;;;;5295045;28;20502;-79
2022/06/23 02:48:33;;;;;;;12.38;10.25;;;;;;;;;;5288882;28;20083;-80
2022/06/23 02:51:07;;;;;;;12.90;9.70;;;;;;;;;;5298597;27;20028;-79
2022/06/23 02:53:45;;;;;;;14.13;9.73;;;;;;;;;;5313922;27;20032;-79
2022/06/23 02:56:27;;;;;;;15.63;9.50;;;;;;;;;;5307335;27;20111;-79
2022/06/23 02:59:03;;;;;;;14.23;10.23;;;;;;;;;;5308408;27;20039;-79
2022/06/23 03:01:51;;;;;;;17.40;10.00;;;;;;;;;;5298439;27;20476;-79
2022/06/23 03:04:29;;;;;;;11.60;9.63;;;;;;;;;;5287123;27;20564;-79
2022/06/23 03:07:06;;;;;;;12.57;9.27;;;;;;;;;;5314288;27;20468;-79
2022/06/23 03:09:47;;;;;;;14.63;9.27;;;;;;;;;;5292068;27;20066;-80
2022/06/23 03:12:47;;;;;;;13.38;10.15;;;;;;;;;;5306997;27;20202;-80
2022/06/23 03:15:24;;;;;;;17.67;10.30;;;;;;;;;;5302980;27;20043;-80
2022/06/23 03:18:00;;;;;;;15.40;10.32;;;;;;;;;;5310506;27;20066;-80
2022/06/23 03:20:44;;;;;;;15.40;9.98;;;;;;;;;;5311167;27;20041;-80
2022/06/23 03:23:20;;;;;;;16.27;10.27;;;;;;;;;;5308647;27;20432;-80
2022/06/23 03:26:10;;;;;;;14.98;10.65;;;;;;;;;;5290665;27;20387;-80
2022/06/23 03:28:58;;;;;;;18.23;10.57;;;;;;;;;;5307869;27;20036;-80
2022/06/23 03:31:33;;;;;;;15.38;9.98;;;;;;;;;;5304921;27;20028;-80
2022/06/23 03:34:14;;;;;;;15.77;10.50;;;;;;;;;;5311314;27;20063;-80
2022/06/23 03:36:49;;;;;;;18.30;10.85;;;;;;;;;;5306971;27;20037;-80
2022/06/23 03:42:43;;;;;;;16.30;10.27;;;;;;;;;;5305086;27;20040;-80
2022/06/23 03:45:24;;;;;;;16.02;10.45;;;;;;;;;;5308383;27;20036;-80
2022/06/23 03:47:58;;;;;;;12.73;10.45;;;;;;;;;;5309525;27;20072;-80
2022/06/23 03:50:39;;;;;;;16.83;11.10;;;;;;;;;;5306440;27;20426;-80
2022/06/23 03:53:23;;;;;;;11.50;10.38;;;;;;;;;;5307242;27;20183;-80
2022/06/23 03:55:56;;;;;;;14.82;10.52;;;;;;;;;;5306173;27;20594;-80
2022/06/23 03:58:27;;;;;;;15.63;9.65;;;;;;;;;;5305630;27;20509;-80
2022/06/23 04:01:04;;;;;;;12.67;9.53;;;;;;;;;;5304605;27;20024;-80
2022/06/23 04:03:35;;;;;;;12.07;9.48;;;;;;;;;;5310560;27;20077;-80
2022/06/23 04:06:10;;;;;;;11.83;9.17;;;;;;;;;;5307072;27;20100;-80
2022/06/23 04:08:44;;;;;;;14.00;9.68;;;;;;;;;;5307293;27;20541;-80
2022/06/23 04:14:08;;;;;;;15.95;9.93;;;;;;;;;;5304101;27;20037;-80
2022/06/23 04:16:40;;;;;;;12.32;9.80;;;;;;;;;;5313120;27;20094;-80
2022/06/23 04:19:21;;;;;;;12.57;9.57;;;;;;;;;;5309151;27;20115;-80
2022/06/23 04:21:59;;;;;;;14.95;10.13;;;;;;;;;;5308512;27;20511;-80
2022/06/23 04:24:32;;;;;;;13.73;9.57;;;;;;;;;;5303024;27;20044;-80
2022/06/23 04:27:06;;;;;;;13.48;8.57;;;;;;;;;;5292908;27;20028;-80
2022/06/23 04:29:38;;;;;;;15.32;9.73;;;;;;;;;;5287922;27;20025;-80
2022/06/23 04:32:13;;;;;;;13.20;8.85;;;;;;;;;;5324513;27;20078;-80
2022/06/23 04:34:53;;;;;;;16.10;8.88;;;;;;;;;;5294765;27;20020;-80
2022/06/23 04:37:31;;;;;;;13.45;8.65;;;;;;;;;;5292724;27;20067;-80
2022/06/23 04:40:07;;;;;;;12.05;8.30;;;;;;;;;;5313113;27;20047;-81
2022/06/23 04:42:43;;;;;;;15.20;8.98;;;;;;;;;;5314663;27;20036;-80
2022/06/23 04:45:33;;;;;;;12.88;8.60;;;;;;;;;;5308097;27;20028;-80
2022/06/23 04:48:10;;;;;;;13.75;8.20;;;;;;;;;;5284277;27;20140;-80
2022/06/23 04:50:46;;;;;;;11.00;8.10;;;;;;;;;;5288863;27;20040;-80
2022/06/23 04:53:18;;;;;;;;;;;;;;;;;;5312746;27;20043;-80
2022/06/23 04:55:58;;;;;;;10.15;7.72;;;;;;;;;;5312652;27;19912;-80
2022/06/23 04:58:30;;;;;;;10.95;8.13;;;;;;;;;;5304375;27;20028;-80
2022/06/23 05:01:01;;;;;;;13.07;7.93;;;;;;;;;;5310001;27;20035;-80
2022/06/23 05:03:39;;;;;;;11.38;7.57;;;;;;;;;;5321217;27;20132;-80
2022/06/23 05:06:20;;;;;;;9.82;7.40;;;;;;;;;;5308676;27;20028;-80
2022/06/23 05:08:52;;;;;;;10.45;7.68;;;;;;;;;;5290353;28;20051;-80
2022/06/23 05:11:26;;;;;;;12.18;7.93;;;;;;;;;;5311864;27;20039;-80
2022/06/23 05:14:02;;;;;;;12.35;7.72;;;;;;;;;;5308593;27;20051;-80
2022/06/23 05:16:40;;;;;;;11.75;7.55;;;;;;;;;;5311842;27;20032;-80
2022/06/23 05:19:17;;;;;;;10.23;8.02;;;;;;;;;;5293560;27;20035;-80
2022/06/23 05:21:50;;;;;;;13.07;7.53;;;;;;;;;;5297856;27;20120;-81
2022/06/23 05:24:27;;;;;;;9.55;6.85;;;;;;;;;;5309571;27;20047;-80
2022/06/23 05:26:58;;;;;;;;;;;;;;;;;;5309092;27;20534;-80
2022/06/23 05:29:51;;;;;;;11.13;7.85;;;;;;;;;;5323660;27;19915;-80
2022/06/23 05:32:37;;;;;;;10.02;6.55;;;;;;;;;;5300338;28;20054;-80
2022/06/23 05:35:23;;;;;;;12.27;6.93;;;;;;;;;;5296104;27;20037;-80
2022/06/23 05:37:55;;;;;;;9.07;6.55;;;;;;;;;;5314366;27;20039;-80
2022/06/23 05:40:35;;;;;;;7.70;6.47;;;;;;;;;;5324865;27;20492;-80
2022/06/23 05:43:08;;;;;;;9.50;6.72;;;;;;;;;;5325883;27;20035;-80
2022/06/23 05:45:48;;;;;;;7.97;6.10;;;;;;;;;;5313796;27;20503;-81
2022/06/23 05:48:23;;;;;;;9.40;6.22;;;;;;;;;;5287681;27;20021;-80
2022/06/23 05:51:00;;;;;;;10.63;6.07;;;;;;;;;;5312046;27;20054;-81
2022/06/23 05:53:38;;;;;;;9.88;5.90;;;;;;;;;;5325215;27;20342;-81
2022/06/23 05:56:09;;;;;;;7.28;5.32;;;;;;;;;;5314809;27;20044;-81
2022/06/23 05:58:46;;;;;;;7.53;4.80;;;;;;;;;;5326718;27;20094;-82
2022/06/23 06:01:24;;;;;;;7.78;5.53;;;;;;;;;;5293252;28;20039;-80
2022/06/23 06:04:13;;;;;;;10.80;5.38;;;;;;;;;;5331092;27;20368;-80
2022/06/23 06:06:45;;;;;;;9.50;5.32;;;;;;;;;;5299146;28;20028;-80
2022/06/23 06:09:37;;;;;;;10.77;5.72;;;;;;;;;;5305189;27;20036;-80
2022/06/23 06:12:19;;;;;;;8.13;5.50;;;;;;;;;;5306568;28;20069;-80
2022/06/23 06:14:59;;;;;;;10.10;5.70;;;;;;;;;;5314195;27;20381;-80
2022/06/23 06:17:32;;;;;;;12.68;6.63;;;;;;;;;;5295956;27;20063;-80
2022/06/23 06:20:07;;;;;;;9.63;5.43;;;;;;;;;;5287506;28;20051;-81
2022/06/23 06:22:48;;;;;;;10.90;5.68;;;;;;;;;;5292646;27;20024;-81
2022/06/23 06:25:24;;;;;;;11.73;5.78;;;;;;;;;;5313968;27;20118;-81
2022/06/23 06:27:55;;;;;;;;;;;;;;;;;;5298337;28;20066;-80
2022/06/23 06:30:29;;;;;;;8.23;5.30;;;;;;;;;;5325060;27;19916;-83
2022/06/23 06:33:00;;;;;;;8.23;5.00;;;;;;;;;;5305172;28;20064;-81
2022/06/23 06:35:41;;;;;;;9.13;5.30;;;;;;;;;;5307025;28;20040;-81
2022/06/23 06:38:13;;;;;;;9.15;5.10;;;;;;;;;;5304001;27;20104;-80
2022/06/23 06:40:46;;;;;;;8.65;5.05;;;;;;;;;;5286183;28;20147;-80
2022/06/23 06:43:19;;;;;;;8.50;4.90;;;;;;;;;;5302563;28;20036;-80
2022/06/23 06:45:50;;;;;;;10.00;4.88;;;;;;;;;;5286240;28;20092;-81
2022/06/23 06:48:24;;;;;;;7.47;4.35;;;;;;;;;;5312850;27;20028;-82
2022/06/23 06:51:00;;;;;;;11.63;4.90;;;;;;;;;;5340189;27;20648;-81
2022/06/23 06:53:37;;;;;;;8.27;4.95;;;;;;;;;;5324862;28;20016;-81
2022/06/23 06:56:16;;;;;;;12.38;5.10;;;;;;;;;;5347294;27;20027;-82
2022/06/23 06:58:53;;;;;;;10.30;4.78;;;;;;;;;;5337827;27;20124;-83
2022/06/23 07:01:25;;;;;;;8.23;4.70;;;;;;;;;;5306394;28;20016;-83
2022/06/23 07:03:57;;;;;;;5.75;4.25;;;;;;;;;;5328244;27;20036;-83
2022/06/23 07:06:55;;;;;;;11.03;5.00;;;;;;;;;;5298796;27;20115;-83
2022/06/23 07:09:41;;;;;;;9.55;4.70;;;;;;;;;;5290687;27;20044;-83
2022/06/23 07:12:18;;;;;;;10.98;4.80;;;;;;;;;;5289354;27;20079;-83
2022/06/23 07:15:03;;;;;;;12.40;4.53;;;;;;;;;;5285735;27;20040;-83
2022/06/23 07:17:43;;;;;;;5.25;4.10;;;;;;;;;;5312598;27;20378;-82
2022/06/23 07:20:20;;;;;;;7.95;4.57;;;;;;;;;;5315183;27;20032;-83
2022/06/23 07:22:56;;;;;;;11.88;4.70;;;;;;;;;;5326624;27;20050;-83
2022/06/23 07:25:44;;;;;;;9.25;4.90;;;;;;;;;;5317268;27;20521;-83
2022/06/23 07:28:28;;;;;;;9.02;3.67;;;;;;;;;;5336316;27;20503;-83
2022/06/23 07:31:25;;;;;;;12.68;4.00;;;;;;;;;;5305030;28;20036;-82
2022/06/23 07:33:59;;;;;;;7.78;4.40;;;;;;;;;;5301783;28;20040;-83
2022/06/23 07:36:44;;;;;;;7.38;4.40;;;;;;;;;;5313690;27;20033;-83
2022/06/23 07:39:18;;;;;;;9.32;4.72;;;;;;;;;;5304620;28;20112;-83
2022/06/23 07:42:00;;;;;;;8.13;4.63;;;;;;;;;;5318528;28;20040;-84
2022/06/23 07:44:50;;;;;;;12.63;5.47;;;;;;;;;;5304196;28;20032;-83
2022/06/23 07:47:22;;;;;;;12.55;5.05;;;;;;;;;;5316272;27;20096;-84
2022/06/23 07:49:54;;;;;;;11.40;5.10;;;;;;;;;;5296300;28;20040;-84
2022/06/23 07:52:28;;;;;;;12.52;5.18;;;;;;;;;;5323732;28;20028;-84
2022/06/23 07:55:00;;;;;;;7.35;4.75;;;;;;;;;;5319498;27;20032;-83
2022/06/23 07:57:33;;;;;;;11.15;4.85;;;;;;;;;;5320762;27;20332;-83
2022/06/23 08:00:07;;;;;;;12.70;5.10;;;;;;;;;;5286589;28;20044;-83
2022/06/23 08:02:50;;;;;;;56.78;12.77;;;;;;;;;;5306581;28;20033;-84
2022/06/23 08:05:28;;;;;;;9.77;5.03;;;;;;;;;;5311403;27;20032;-82
2022/06/23 08:07:59;;;;;;;12.77;4.45;;;;;;;;;;5308319;28;20043;-83
2022/06/23 08:10:31;;;;;;;18.00;6.13;;;;;;;;;;5313025;28;20469;-83
2022/06/23 08:13:15;;;;;;;11.77;5.30;;;;;;;;;;5310337;27;20028;-83
2022/06/23 08:19:03;;;;;;;11.98;4.38;;;;;;;;;;5325614;27;20044;-82
2022/06/23 08:21:49;;;;;;;10.32;4.38;;;;;;;;;;5290214;28;20462;-83
2022/06/23 08:24:25;;;;;;;12.88;4.35;;;;;;;;;;5326580;28;20031;-83
2022/06/23 08:27:19;;;;;;;11.27;4.30;;;;;;;;;;5338203;27;20365;-82
2022/06/23 08:30:00;;;;;;;12.75;3.80;;;;;;;;;;5304957;28;20528;-82
2022/06/23 08:32:37;;;;;;;17.52;5.13;;;;;;;;;;5302971;28;20032;-82
2022/06/23 08:35:17;;;;;;;6.25;4.05;;;;;;;;;;5298191;28;20472;-82
2022/06/23 08:38:03;;;;;;;8.07;3.55;;;;;;;;;;5308444;28;20028;-82
2022/06/23 08:40:49;;;;;;;10.48;4.13;;;;;;;;;;5309442;28;20177;-81
2022/06/23 08:43:21;;;;;;;12.90;4.32;;;;;;;;;;5304582;28;20021;-82
2022/06/23 08:46:05;;;;;;;11.40;3.70;;;;;;;;;;5307495;27;20028;-81
2022/06/23 08:48:42;;;;;;;7.60;3.42;;;;;;;;;;5305623;27;20032;-80
2022/06/23 08:51:17;;;;;;;11.15;3.42;;;;;;;;;;5315527;27;20031;-81
2022/06/23 08:53:57;;;;;;;7.68;3.20;;;;;;;;;;5334548;27;20038;-81
2022/06/23 08:56:31;;;;;;;10.70;3.50;;;;;;;;;;5286249;28;20144;-81
2022/06/23 08:59:08;;;;;;;7.13;3.80;;;;;;;;;;5315768;27;20035;-81
2022/06/23 09:01:52;;;;;;;8.65;3.30;;;;;;;;;;5319464;27;20050;-81
2022/06/23 09:04:33;;;;;;;6.88;2.72;;;;;;;;;;5329168;27;20032;-81
2022/06/23 09:07:14;;;;;;;10.25;3.28;;;;;;;;;;5326551;27;20024;-81
2022/06/23 09:09:48;;;;;;;8.07;2.90;;;;;;;;;;5329066;27;20067;-81
2022/06/23 09:12:29;;;;;;;10.85;3.58;;;;;;;;;;5314858;28;20508;-81
2022/06/23 09:15:13;;;;;;;7.22;2.80;;;;;;;;;;5303056;28;20118;-80
2022/06/23 09:17:53;;;;;;;8.55;3.05;;;;;;;;;;5344100;27;20016;-81
2022/06/23 09:20:46;;;;;;;9.05;3.03;;;;;;;;;;5347647;27;20383;-81
2022/06/23 09:23:28;;;;;;;6.78;3.05;;;;;;;;;;5291766;28;20123;-81
2022/06/23 09:26:05;;;;;;;7.25;3.40;;;;;;;;;;5340260;27;20024;-81
2022/06/23 09:28:39;;;;;;;8.70;2.95;;;;;;;;;;5336596;27;20029;-81
2022/06/23 09:31:19;;;;;;;8.23;2.50;;;;;;;;;;5304974;27;20028;-80
2022/06/23 09:34:08;;;;;;;6.95;3.03;;;;;;;;;;5324987;27;20028;-81
2022/06/23 09:37:03;;;;;;;7.50;3.25;;;;;;;;;;5339458;27;20039;-81
2022/06/23 09:39:53;;;;;;;6.32;2.70;;;;;;;;;;5318280;27;20046;-81
2022/06/23 09:42:24;;;;;;;10.63;3.08;;;;;;;;;;5325738;28;20031;-81
2022/06/23 09:45:09;;;;;;;26.07;5.17;;;;;;;;;;5330326;28;20028;-81
2022/06/23 09:47:40;;;;;;;;;;;;;;;;;;5334100;27;20083;-81
2022/06/23 09:50:17;;;;;;;10.98;3.42;;;;;;;;;;5304761;27;20380;-82
2022/06/23 09:52:58;;;;;;;7.53;3.15;;;;;;;;;;5304529;28;20052;-81
2022/06/23 09:55:39;;;;;;;13.43;4.18;;;;;;;;;;5304007;28;20020;-81
2022/06/23 09:58:22;;;;;;;11.40;3.85;;;;;;;;;;5313552;28;20499;-80
2022/06/23 10:00:53;;;;;;;15.88;3.92;;;;;;;;;;5338277;27;20044;-81
2022/06/23 10:03:33;;;;;;;12.77;3.67;;;;;;;;;;5304371;28;20496;-81
2022/06/23 10:06:31;;;;;;;11.02;3.35;;;;;;;;;;5319698;28;20143;-81
2022/06/23 10:09:08;;;;;;;9.55;3.65;;;;;;;;;;5300312;28;20048;-81
2022/06/23 10:11:39;;;;;;;10.20;4.15;;;;;;;;;;5303827;28;20107;-81
2022/06/23 10:14:25;;;;;;;9.38;3.65;;;;;;;;;;5318569;27;20436;-81
2022/06/23 10:17:10;;;;;;;10.13;3.28;;;;;;;;;;5304225;28;20046;-81
2022/06/23 10:20:00;;;;;;;11.32;3.58;;;;;;;;;;5285127;28;20033;-81
2022/06/23 10:22:57;;;;;;;8.27;4.03;;;;;;;;;;5303940;28;20469;-81
2022/06/23 10:25:47;;;;;;;11.88;3.63;;;;;;;;;;5283705;28;20074;-81
2022/06/23 10:28:25;;;;;;;11.50;3.85;;;;;;;;;;5329693;27;20024;-81
2022/06/23 10:31:05;;;;;;;8.60;3.17;;;;;;;;;;5306839;28;20027;-81
2022/06/23 10:33:45;;;;;;;11.20;3.17;;;;;;;;;;5324719;28;20485;-81
2022/06/23 10:36:16;;;;;;;10.57;3.30;;;;;;;;;;5328555;27;20031;-81
2022/06/23 10:39:06;;;;;;;10.60;3.33;;;;;;;;;;5325285;28;20504;-81
2022/06/23 10:41:37;;;;;;;8.63;3.35;;;;;;;;;;5325382;28;20062;-81
2022/06/23 10:44:27;;;;;;;8.10;2.60;;;;;;;;;;5339969;27;20067;-81
2022/06/23 10:47:07;;;;;;;12.57;2.70;;;;;;;;;;5315590;27;20158;-81
2022/06/23 10:49:38;;;;;;;5.07;2.20;;;;;;;;;;5290023;28;20044;-81
2022/06/23 10:52:12;;;;;;;10.07;3.08;;;;;;;;;;5295032;28;20093;-81
2022/06/23 10:54:53;;;;;;;8.65;2.50;;;;;;;;;;5315091;27;20112;-81
2022/06/23 10:57:34;;;;;;;8.15;2.30;;;;;;;;;;5307086;28;20031;-81
2022/06/23 11:00:16;;;;;;;6.97;2.42;;;;;;;;;;5306089;27;20060;-81
2022/06/23 11:03:06;;;;;;;10.82;2.55;;;;;;;;;;5284180;27;20027;-81
2022/06/23 11:05:44;;;;;;;10.52;2.60;;;;;;;;;;5318700;28;20030;-81
2022/06/23 11:08:24;;;;;;;7.82;2.83;;;;;;;;;;5302543;28;20469;-81
2022/06/23 11:11:11;;;;;;;6.40;2.55;;;;;;;;;;5284474;28;20031;-81
2022/06/23 11:13:42;;;;;;;10.77;2.75;;;;;;;;;;5302200;28;20519;-81
2022/06/23 11:16:16;;;;;;;10.57;2.80;;;;;;;;;;5318931;28;20020;-81
2022/06/23 11:18:48;;;;;;;10.05;3.28;;;;;;;;;;5318530;28;20040;-81
2022/06/23 11:21:54;;;;;;;7.78;2.60;;;;;;;;;;5318667;28;20021;-82
2022/06/23 11:24:33;;;;;;;7.38;2.80;;;;;;;;;;5242695;28;20430;-81
2022/06/23 11:27:27;;;;;;;9.57;2.92;;;;;;;;;;5315718;28;20111;-81
2022/06/23 11:30:09;;;;;;;11.65;3.38;;;;;;;;;;5338464;27;20032;-81
2022/06/23 11:32:53;;;;;;;7.35;2.95;;;;;;;;;;5339698;27;20024;-81
2022/06/23 11:35:31;;;;;;;9.50;3.30;;;;;;;;;;5322546;28;20032;-81
2022/06/23 11:38:14;;;;;;;12.30;3.40;;;;;;;;;;5309909;28;20025;-81
2022/06/23 11:41:04;;;;;;;14.02;3.65;;;;;;;;;;5284300;28;20040;-81
2022/06/23 11:43:59;;;;;;;7.43;3.28;;;;;;;;;;5282507;28;20033;-81
2022/06/23 11:46:34;;;;;;;7.53;3.28;;;;;;;;;;5283710;28;20024;-81
2022/06/23 11:49:18;;;;;;;10.18;3.72;;;;;;;;;;5284296;28;20052;-80
2022/06/23 11:52:01;;;;;;;9.77;3.25;;;;;;;;;;5270772;28;20037;-81
2022/06/23 11:54:40;;;;;;;10.02;3.67;;;;;;;;;;5301869;28;20127;-80
2022/06/23 11:57:30;;;;;;;11.05;3.08;;;;;;;;;;5291941;28;20071;-80
2022/06/23 12:00:04;;;;;;;9.98;3.17;;;;;;;;;;5296729;28;20078;-80
2022/06/23 12:02:41;;;;;;;9.40;3.78;;;;;;;;;;5297681;28;20519;-81
2022/06/23 12:05:31;;;;;;;8.30;3.15;;;;;;;;;;5298634;28;20024;-81
2022/06/23 12:08:19;;;;;;;9.43;3.10;;;;;;;;;;5296671;28;20114;-81
2022/06/23 12:10:50;;;;;;;10.25;3.58;;;;;;;;;;5289329;28;20067;-81
2022/06/23 12:13:23;;;;;;;13.83;3.00;;;;;;;;;;5299740;28;20048;-81
2022/06/23 12:15:55;;;;;;;11.02;3.22;;;;;;;;;;5301893;28;20029;-81
2022/06/23 12:18:31;;;;;;;14.23;2.80;;;;;;;;;;5293091;28;20024;-81
2022/06/23 12:21:06;;;;;;;13.48;3.75;;;;;;;;;;5299282;28;20400;-81
2022/06/23 12:23:55;;;;;;;9.25;3.20;;;;;;;;;;5288318;28;20039;-81
2022/06/23 12:26:39;;;;;;;8.20;3.30;;;;;;;;;;5297042;28;20052;-81
2022/06/23 12:29:29;;;;;;;7.63;2.50;;;;;;;;;;5284679;28;20504;-81
2022/06/23 12:32:03;;;;;;;7.10;2.70;;;;;;;;;;5291175;28;20032;-81
2022/06/23 12:34:52;;;;;;;13.48;2.70;;;;;;;;;;5286280;28;20096;-81
2022/06/23 12:37:39;;;;;;;8.63;2.80;;;;;;;;;;5303854;28;20137;-81
2022/06/23 12:40:26;;;;;;;15.45;2.88;;;;;;;;;;5286852;28;20139;-81
2022/06/23 12:43:00;;;;;;;7.13;2.72;;;;;;;;;;5276298;28;20037;-81
2022/06/23 12:45:47;;;;;;;6.87;2.63;;;;;;;;;;5272635;28;20021;-81
2022/06/23 12:48:25;;;;;;;10.45;2.53;;;;;;;;;;5287651;28;20025;-81
2022/06/23 12:51:32;;;;;;;5.63;2.03;;;;;;;;;;5302707;28;20092;-81
2022/06/23 12:54:11;;;;;;;8.07;2.67;;;;;;;;;;5235598;28;20034;-81
2022/06/23 12:56:48;;;;;;;5.55;2.08;;;;;;;;;;5278839;28;20036;-81
2022/06/23 12:59:19;;;;;;;5.28;2.30;;;;;;;;;;5311393;27;20040;-81
2022/06/23 13:01:54;;;;;;;6.40;2.70;;;;;;;;;;5294052;28;20027;-80
2022/06/23 13:04:25;;;;;;;8.63;2.53;;;;;;;;;;5297139;28;20034;-81
2022/06/23 13:07:02;;;;;;;12.60;2.45;;;;;;;;;;5295170;28;20025;-81
2022/06/23 13:09:39;;;;;;;13.05;2.63;;;;;;;;;;5291916;28;20044;-81
2022/06/23 13:12:14;;;;;;;4.95;2.38;;;;;;;;;;5291158;28;20128;-81
2022/06/23 13:14:49;;;;;;;9.43;3.05;;;;;;;;;;5292395;28;20363;-81
2022/06/23 13:17:32;;;;;;;7.75;2.40;;;;;;;;;;5278084;28;20362;-80
2022/06/23 13:20:20;;;;;;;7.63;2.50;;;;;;;;;;5302137;28;20024;-80
2022/06/23 13:22:57;;;;;;;7.30;2.65;;;;;;;;;;5303908;28;20064;-80
2022/06/23 13:25:33;;;;;;;11.82;2.67;;;;;;;;;;5298214;28;20119;-81
2022/06/23 13:28:05;;;;;;;5.47;2.58;;;;;;;;;;5285442;28;20039;-81
2022/06/23 13:30:47;;;;;;;6.53;2.20;;;;;;;;;;5320871;28;20460;-80
2022/06/23 13:33:30;;;;;;;6.43;2.20;;;;;;;;;;5301984;28;20024;-81
2022/06/23 13:36:04;;;;;;;6.25;2.05;;;;;;;;;;5286063;28;20036;-80
2022/06/23 13:38:40;;;;;;;4.63;1.95;;;;;;;;;;5285326;28;20098;-81
2022/06/23 13:41:22;;;;;;;5.55;1.90;;;;;;;;;;5275945;28;20021;-80
2022/06/23 13:44:17;;;;;;;6.97;2.40;;;;;;;;;;5298083;28;20104;-81
2022/06/23 13:47:07;;;;;;;5.40;2.00;;;;;;;;;;5287236;28;20029;-80
2022/06/23 13:49:43;;;;;;;8.27;2.05;;;;;;;;;;5299987;28;20044;-80
2022/06/23 13:52:20;;;;;;;7.50;2.03;;;;;;;;;;5317478;27;20115;-80
2022/06/23 13:54:55;;;;;;;8.32;2.20;;;;;;;;;;5306999;28;20032;-80
2022/06/23 13:57:26;;;;;;;7.10;2.08;;;;;;;;;;5319803;27;20068;-80
2022/06/23 14:00:01;;;;;;;4.47;2.00;;;;;;;;;;5311411;28;20115;-80
2022/06/23 14:02:49;;;;;;;6.77;2.47;;;;;;;;;;5323671;27;20036;-79
2022/06/23 14:05:27;;;;;;;7.25;2.13;;;;;;;;;;5299842;28;20036;-80
2022/06/23 14:08:04;;;;;;;7.78;2.45;;;;;;;;;;5301730;27;20043;-80
2022/06/23 14:10:42;;;;;;;10.07;2.10;;;;;;;;;;5322991;27;20040;-80
2022/06/23 14:13:17;;;;;;;8.88;2.53;;;;;;;;;;5313351;28;20634;-80
2022/06/23 14:15:51;;;;;;;9.02;2.80;;;;;;;;;;5313948;28;20036;-80
2022/06/23 14:18:30;;;;;;;7.05;2.40;;;;;;;;;;5313569;27;20484;-80
2022/06/23 14:21:13;;;;;;;10.88;2.42;;;;;;;;;;5307284;28;20028;-80
2022/06/23 14:23:47;;;;;;;5.80;2.30;;;;;;;;;;5312099;28;20544;-80
2022/06/23 14:26:22;;;;;;;4.82;1.80;;;;;;;;;;5318235;28;20039;-80
2022/06/23 14:29:01;;;;;;;6.10;2.10;;;;;;;;;;5301274;28;20029;-80
2022/06/23 14:31:39;;;;;;;7.75;2.38;;;;;;;;;;5293358;27;20031;-81
2022/06/23 14:34:23;;;;;;;5.32;2.15;;;;;;;;;;5305653;27;20099;-80
2022/06/23 14:37:01;;;;;;;5.72;2.15;;;;;;;;;;5328346;27;20054;-80
2022/06/23 14:39:52;;;;;;;7.95;2.20;;;;;;;;;;5315691;27;20500;-80
2022/06/23 14:42:29;;;;;;;6.50;2.40;;;;;;;;;;5310351;27;20502;-80
2022/06/23 14:45:14;;;;;;;6.75;2.03;;;;;;;;;;5288770;27;20067;-80
2022/06/23 14:47:58;;;;;;;7.38;2.25;;;;;;;;;;5310222;28;20024;-80
2022/06/23 14:50:29;;;;;;;4.75;2.00;;;;;;;;;;5303004;28;20077;-80
2022/06/23 14:53:00;;;;;;;4.68;2.15;;;;;;;;;;5303658;28;20485;-80
2022/06/23 14:55:37;;;;;;;8.25;2.25;;;;;;;;;;5304419;27;20038;-80
2022/06/23 14:58:08;;;;;;;9.65;2.85;;;;;;;;;;5327860;27;20118;-80
2022/06/23 15:01:05;;;;;;;5.90;2.10;;;;;;;;;;5312007;27;20577;-80
2022/06/23 15:03:50;;;;;;;8.30;2.40;;;;;;;;;;5294498;27;20170;-80
2022/06/23 15:06:39;;;;;;;5.97;2.10;;;;;;;;;;5321574;28;20039;-80
2022/06/23 15:09:19;;;;;;;8.93;2.28;;;;;;;;;;5317360;27;20051;-80
2022/06/23 15:11:54;;;;;;;7.10;2.35;;;;;;;;;;5310852;27;20424;-80
2022/06/23 15:14:28;;;;;;;27.92;3.03;;;;;;;;;;5295272;27;20020;-81
2022/06/23 15:17:05;;;;;;;15.20;3.22;;;;;;;;;;5305614;27;20036;-80
2022/06/23 15:19:41;;;;;;;34.67;4.20;;;;;;;;;;5299056;28;20044;-80
2022/06/23 15:25:09;;;;;;;9.65;2.97;;;;;;;;;;5311068;27;20036;-80
2022/06/23 15:27:46;;;;;;;12.57;2.90;;;;;;;;;;5336025;27;20424;-80
2022/06/23 15:30:19;;;;;;;11.57;3.00;;;;;;;;;;5301677;28;20491;-80
2022/06/23 15:32:52;;;;;;;9.38;2.70;;;;;;;;;;5302255;28;20700;-81
2022/06/23 15:35:42;;;;;;;10.30;3.33;;;;;;;;;;5302854;28;20020;-80
2022/06/23 15:38:46;;;;;;;6.28;2.33;;;;;;;;;;5302861;27;20461;-80
2022/06/23 15:41:40;;;;;;;4.97;2.10;;;;;;;;;;5268013;28;20037;-80
2022/06/23 15:44:11;;;;;;;4.95;2.05;;;;;;;;;;5282450;28;20025;-80
2022/06/23 15:46:54;;;;;;;6.23;2.20;;;;;;;;;;5302710;28;20027;-80
2022/06/23 15:49:44;;;;;;;11.00;2.90;;;;;;;;;;5318804;27;20831;-80
2022/06/23 15:52:18;;;;;;;7.13;2.15;;;;;;;;;;5323020;28;20046;-80
2022/06/23 15:54:49;;;;;;;6.20;2.13;;;;;;;;;;5338415;27;20036;-80
2022/06/23 15:57:35;;;;;;;6.28;2.40;;;;;;;;;;5322869;28;20849;-80
2022/06/23 16:00:19;;;;;;;6.22;2.10;;;;;;;;;;5322759;28;20020;-80
2022/06/23 16:03:13;;;;;;;6.20;2.30;;;;;;;;;;5338701;27;20028;-80